Capitol Logistics 306


KRFD
Chicago/Rockford International Airport
Rockford, Illinois, US
KSEA
Seattle-Tacoma International Airport
Seattle, Washington, US

Activity Log

Date Flight Route Aircraft Duration
03/09/2020 CPX306 KRFD/25 JIBOR J90 MCW J16 BIL J136 MLP GLASR1 KSEA/I16C B763 4h 09m
11/26/2019 CPX416 RFD COTON J30 ODI KP90G KP09A DIK KU15Q GEG GLASR1 B738 3h 58m
01/15/2019 CPX416 RFD DBQ MCW J16 BIL J136 HLN J34 ODESS EPH8 B752 3h 35m
11/25/2018 CPX326 RFD COTON J30 ODI KP90G KP09A DIK KU15Q GEG GLASR1 B752 3h 56m

Route Details

Aircraft Information
Primary: Boeing 767-300BDSF
Backup: Not Available
Route Data
Distance: 1684nm
Sched. Duration: 4h 40m
Avg. Duration: 3h 64m (-75m)
Times Flown: 4
Recm'd Route: RFD COTON J30 ODI KP90G KP09A DIK KU15Q GEG GLASR1
Planned Altitude: 34,000ft
Origin Wx: KRFD 200154Z 03007KT 10SM BKN080 OVC090 03/00 A3025 RMK AO2 SLP249 T00280000
Dest. Wx: KSEA 200229Z 06004KT 9SM BKN026 OVC040 12/09 A3018 RMK AO2 T01170089 $
Notes:

Financial History
Total Freight: 220,459lbs
Average Load: 55,115lbs/flt
Fuel Used: 122,776lbs
Avg. Fuel Used: 30,694lbs/flt
Fuel Expense: $88,409
Avg. Fuel Expense: $22,102
Avg. Fuel Cost: $0.72/lbs
Total Gross Income: $298,664
Pilot Pay: $856
Total Expenses: $32,464
Total Revenue: $173,805
Average Revenue: $74,665.92